sensor_id;sensor_type;location;lat;lon;timestamp;P1;durP1;ratioP1;P2;durP2;ratioP2
48765;SDS011;65794;51.836;5.002;2023-07-13T00:01:30;6.53;;;1.02;;
48765;SDS011;65794;51.836;5.002;2023-07-13T00:03:57;9.48;;;1.10;;
48765;SDS011;65794;51.836;5.002;2023-07-13T00:06:24;8.88;;;1.75;;
48765;SDS011;65794;51.836;5.002;2023-07-13T00:08:51;3.70;;;1.00;;
48765;SDS011;65794;51.836;5.002;2023-07-13T00:11:19;6.20;;;1.38;;
48765;SDS011;65794;51.836;5.002;2023-07-13T00:13:46;9.43;;;1.17;;
48765;SDS011;65794;51.836;5.002;2023-07-13T00:16:13;10.77;;;1.40;;
48765;SDS011;65794;51.836;5.002;2023-07-13T00:18:40;8.50;;;1.25;;
48765;SDS011;65794;51.836;5.002;2023-07-13T00:21:07;8.07;;;1.38;;
48765;SDS011;65794;51.836;5.002;2023-07-13T00:23:35;4.38;;;1.08;;
48765;SDS011;65794;51.836;5.002;2023-07-13T00:26:03;5.20;;;1.10;;
48765;SDS011;65794;51.836;5.002;2023-07-13T00:28:31;8.73;;;1.50;;
48765;SDS011;65794;51.836;5.002;2023-07-13T00:30:58;7.07;;;1.13;;
48765;SDS011;65794;51.836;5.002;2023-07-13T00:33:26;14.05;;;1.08;;
48765;SDS011;65794;51.836;5.002;2023-07-13T00:35:53;9.57;;;1.23;;
48765;SDS011;65794;51.836;5.002;2023-07-13T00:38:21;11.52;;;1.20;;
48765;SDS011;65794;51.836;5.002;2023-07-13T00:40:48;7.53;;;1.00;;
48765;SDS011;65794;51.836;5.002;2023-07-13T00:43:16;7.68;;;1.70;;
48765;SDS011;65794;51.836;5.002;2023-07-13T00:48:15;10.93;;;1.85;;
48765;SDS011;65794;51.836;5.002;2023-07-13T00:50:44;6.95;;;1.00;;
48765;SDS011;65794;51.836;5.002;2023-07-13T00:53:11;7.35;;;1.33;;
48765;SDS011;65794;51.836;5.002;2023-07-13T00:55:38;12.25;;;1.80;;
48765;SDS011;65794;51.836;5.002;2023-07-13T00:58:05;8.93;;;1.23;;
48765;SDS011;65794;51.836;5.002;2023-07-13T01:00:34;12.30;;;1.90;;
48765;SDS011;65794;51.836;5.002;2023-07-13T01:03:02;6.78;;;1.50;;
48765;SDS011;65794;51.836;5.002;2023-07-13T01:05:32;8.02;;;1.00;;
48765;SDS011;65794;51.836;5.002;2023-07-13T01:07:59;6.45;;;1.10;;
48765;SDS011;65794;51.836;5.002;2023-07-13T01:10:27;9.82;;;1.45;;
48765;SDS011;65794;51.836;5.002;2023-07-13T01:12:54;8.50;;;1.35;;
48765;SDS011;65794;51.836;5.002;2023-07-13T01:18:06;7.55;;;1.75;;
48765;SDS011;65794;51.836;5.002;2023-07-13T01:20:34;9.05;;;1.90;;
48765;SDS011;65794;51.836;5.002;2023-07-13T01:23:08;6.10;;;1.38;;
48765;SDS011;65794;51.836;5.002;2023-07-13T01:25:36;13.35;;;1.75;;
48765;SDS011;65794;51.836;5.002;2023-07-13T01:28:04;4.90;;;1.20;;
48765;SDS011;65794;51.836;5.002;2023-07-13T01:30:31;8.57;;;1.98;;
48765;SDS011;65794;51.836;5.002;2023-07-13T01:33:01;9.48;;;1.73;;
48765;SDS011;65794;51.836;5.002;2023-07-13T01:35:30;8.02;;;1.63;;
48765;SDS011;65794;51.836;5.002;2023-07-13T01:37:57;10.13;;;1.50;;
48765;SDS011;65794;51.836;5.002;2023-07-13T01:40:24;7.47;;;1.40;;
48765;SDS011;65794;51.836;5.002;2023-07-13T01:42:51;11.65;;;1.58;;
48765;SDS011;65794;51.836;5.002;2023-07-13T01:45:19;11.85;;;2.15;;
48765;SDS011;65794;51.836;5.002;2023-07-13T01:47:47;13.45;;;1.67;;
48765;SDS011;65794;51.836;5.002;2023-07-13T01:50:13;12.82;;;1.60;;
48765;SDS011;65794;51.836;5.002;2023-07-13T01:52:40;9.43;;;2.05;;
48765;SDS011;65794;51.836;5.002;2023-07-13T01:55:07;7.60;;;1.85;;
48765;SDS011;65794;51.836;5.002;2023-07-13T01:57:35;8.15;;;1.60;;
48765;SDS011;65794;51.836;5.002;2023-07-13T02:00:06;12.18;;;2.30;;
48765;SDS011;65794;51.836;5.002;2023-07-13T02:02:41;8.63;;;2.22;;
48765;SDS011;65794;51.836;5.002;2023-07-13T02:05:11;10.68;;;2.05;;
48765;SDS011;65794;51.836;5.002;2023-07-13T02:07:40;8.20;;;2.15;;
48765;SDS011;65794;51.836;5.002;2023-07-13T02:10:08;8.02;;;2.08;;
48765;SDS011;65794;51.836;5.002;2023-07-13T02:12:35;9.13;;;1.90;;
48765;SDS011;65794;51.836;5.002;2023-07-13T02:15:02;14.57;;;2.78;;
48765;SDS011;65794;51.836;5.002;2023-07-13T02:17:30;7.35;;;1.90;;
48765;SDS011;65794;51.836;5.002;2023-07-13T02:19:57;11.88;;;1.88;;
48765;SDS011;65794;51.836;5.002;2023-07-13T02:22:24;9.75;;;2.97;;
48765;SDS011;65794;51.836;5.002;2023-07-13T02:24:51;11.23;;;2.28;;
48765;SDS011;65794;51.836;5.002;2023-07-13T02:27:18;13.63;;;2.88;;
48765;SDS011;65794;51.836;5.002;2023-07-13T02:29:45;12.73;;;2.05;;
48765;SDS011;65794;51.836;5.002;2023-07-13T02:32:12;9.70;;;1.95;;
48765;SDS011;65794;51.836;5.002;2023-07-13T02:34:40;12.23;;;2.97;;
48765;SDS011;65794;51.836;5.002;2023-07-13T02:37:07;9.50;;;2.30;;
48765;SDS011;65794;51.836;5.002;2023-07-13T02:39:34;8.63;;;2.50;;
48765;SDS011;65794;51.836;5.002;2023-07-13T02:42:03;10.52;;;2.35;;
48765;SDS011;65794;51.836;5.002;2023-07-13T02:44:30;13.68;;;2.83;;
48765;SDS011;65794;51.836;5.002;2023-07-13T02:46:57;8.25;;;2.28;;
48765;SDS011;65794;51.836;5.002;2023-07-13T02:49:24;9.50;;;2.05;;
48765;SDS011;65794;51.836;5.002;2023-07-13T02:51:51;13.93;;;2.60;;
48765;SDS011;65794;51.836;5.002;2023-07-13T02:54:18;12.35;;;2.50;;
48765;SDS011;65794;51.836;5.002;2023-07-13T02:56:45;15.35;;;2.60;;
48765;SDS011;65794;51.836;5.002;2023-07-13T02:59:12;8.90;;;2.55;;
48765;SDS011;65794;51.836;5.002;2023-07-13T03:01:39;14.27;;;2.78;;
48765;SDS011;65794;51.836;5.002;2023-07-13T03:04:07;10.15;;;2.75;;
48765;SDS011;65794;51.836;5.002;2023-07-13T03:06:35;14.55;;;2.75;;
48765;SDS011;65794;51.836;5.002;2023-07-13T03:09:04;11.77;;;3.13;;
48765;SDS011;65794;51.836;5.002;2023-07-13T03:11:34;12.45;;;2.38;;
48765;SDS011;65794;51.836;5.002;2023-07-13T03:14:22;18.20;;;3.40;;
48765;SDS011;65794;51.836;5.002;2023-07-13T03:16:49;15.77;;;3.38;;
48765;SDS011;65794;51.836;5.002;2023-07-13T03:19:16;18.80;;;3.58;;
48765;SDS011;65794;51.836;5.002;2023-07-13T03:21:48;11.45;;;2.53;;
48765;SDS011;65794;51.836;5.002;2023-07-13T03:24:15;9.25;;;2.90;;
48765;SDS011;65794;51.836;5.002;2023-07-13T03:26:42;16.15;;;3.17;;
48765;SDS011;65794;51.836;5.002;2023-07-13T03:29:10;14.80;;;3.03;;
48765;SDS011;65794;51.836;5.002;2023-07-13T03:31:37;14.35;;;3.03;;
48765;SDS011;65794;51.836;5.002;2023-07-13T03:34:05;19.60;;;2.88;;
48765;SDS011;65794;51.836;5.002;2023-07-13T03:36:32;14.20;;;3.50;;
48765;SDS011;65794;51.836;5.002;2023-07-13T03:39:04;16.80;;;3.50;;
48765;SDS011;65794;51.836;5.002;2023-07-13T03:44:07;14.30;;;3.05;;
48765;SDS011;65794;51.836;5.002;2023-07-13T03:46:34;12.23;;;3.15;;
48765;SDS011;65794;51.836;5.002;2023-07-13T03:49:04;11.65;;;3.08;;
48765;SDS011;65794;51.836;5.002;2023-07-13T03:51:32;11.65;;;3.47;;
48765;SDS011;65794;51.836;5.002;2023-07-13T03:54:00;13.50;;;3.67;;
48765;SDS011;65794;51.836;5.002;2023-07-13T03:56:27;15.60;;;4.28;;
48765;SDS011;65794;51.836;5.002;2023-07-13T03:58:54;13.57;;;3.05;;
48765;SDS011;65794;51.836;5.002;2023-07-13T04:01:22;16.92;;;3.42;;
48765;SDS011;65794;51.836;5.002;2023-07-13T04:03:49;23.05;;;4.18;;
48765;SDS011;65794;51.836;5.002;2023-07-13T04:06:21;13.02;;;3.25;;
48765;SDS011;65794;51.836;5.002;2023-07-13T04:08:49;21.17;;;4.00;;
48765;SDS011;65794;51.836;5.002;2023-07-13T04:11:17;11.35;;;3.72;;
48765;SDS011;65794;51.836;5.002;2023-07-13T04:13:44;16.17;;;4.70;;
48765;SDS011;65794;51.836;5.002;2023-07-13T04:16:12;23.85;;;4.85;;
48765;SDS011;65794;51.836;5.002;2023-07-13T04:18:40;11.50;;;3.28;;
48765;SDS011;65794;51.836;5.002;2023-07-13T04:21:07;16.95;;;4.25;;
48765;SDS011;65794;51.836;5.002;2023-07-13T04:23:36;21.63;;;4.28;;
48765;SDS011;65794;51.836;5.002;2023-07-13T04:26:04;17.25;;;4.25;;
48765;SDS011;65794;51.836;5.002;2023-07-13T04:28:31;17.83;;;4.30;;
48765;SDS011;65794;51.836;5.002;2023-07-13T04:30:58;19.30;;;5.30;;
48765;SDS011;65794;51.836;5.002;2023-07-13T04:33:26;27.55;;;5.03;;
48765;SDS011;65794;51.836;5.002;2023-07-13T04:35:53;18.60;;;4.60;;
48765;SDS011;65794;51.836;5.002;2023-07-13T04:38:25;19.50;;;4.65;;
48765;SDS011;65794;51.836;5.002;2023-07-13T04:40:54;19.80;;;5.07;;
48765;SDS011;65794;51.836;5.002;2023-07-13T04:43:21;23.00;;;5.43;;
48765;SDS011;65794;51.836;5.002;2023-07-13T04:45:50;15.82;;;4.55;;
48765;SDS011;65794;51.836;5.002;2023-07-13T04:48:17;22.70;;;5.65;;
48765;SDS011;65794;51.836;5.002;2023-07-13T04:50:45;24.20;;;6.20;;
48765;SDS011;65794;51.836;5.002;2023-07-13T04:53:12;18.23;;;4.93;;
48765;SDS011;65794;51.836;5.002;2023-07-13T04:55:39;21.98;;;5.43;;
48765;SDS011;65794;51.836;5.002;2023-07-13T04:58:07;23.48;;;5.43;;
48765;SDS011;65794;51.836;5.002;2023-07-13T05:00:34;20.30;;;5.35;;
48765;SDS011;65794;51.836;5.002;2023-07-13T05:03:02;20.77;;;5.55;;
48765;SDS011;65794;51.836;5.002;2023-07-13T05:05:29;19.15;;;5.72;;
48765;SDS011;65794;51.836;5.002;2023-07-13T05:07:56;20.50;;;5.82;;
48765;SDS011;65794;51.836;5.002;2023-07-13T05:10:23;19.67;;;5.57;;
48765;SDS011;65794;51.836;5.002;2023-07-13T05:12:50;19.92;;;6.43;;
48765;SDS011;65794;51.836;5.002;2023-07-13T05:15:17;23.92;;;5.82;;
48765;SDS011;65794;51.836;5.002;2023-07-13T05:17:48;21.38;;;5.65;;
48765;SDS011;65794;51.836;5.002;2023-07-13T05:20:16;25.75;;;6.75;;
48765;SDS011;65794;51.836;5.002;2023-07-13T05:22:43;21.80;;;7.05;;
48765;SDS011;65794;51.836;5.002;2023-07-13T05:25:10;19.35;;;6.10;;
48765;SDS011;65794;51.836;5.002;2023-07-13T05:27:37;24.25;;;6.05;;
48765;SDS011;65794;51.836;5.002;2023-07-13T05:30:04;20.85;;;6.20;;
48765;SDS011;65794;51.836;5.002;2023-07-13T05:32:31;22.95;;;6.88;;
48765;SDS011;65794;51.836;5.002;2023-07-13T05:34:58;20.83;;;5.85;;
48765;SDS011;65794;51.836;5.002;2023-07-13T05:37:25;22.90;;;6.60;;
48765;SDS011;65794;51.836;5.002;2023-07-13T05:39:53;18.88;;;6.55;;
48765;SDS011;65794;51.836;5.002;2023-07-13T05:42:20;22.40;;;6.50;;
48765;SDS011;65794;51.836;5.002;2023-07-13T05:44:47;25.10;;;7.15;;
48765;SDS011;65794;51.836;5.002;2023-07-13T05:47:13;24.85;;;6.55;;
48765;SDS011;65794;51.836;5.002;2023-07-13T05:49:41;24.17;;;7.28;;
48765;SDS011;65794;51.836;5.002;2023-07-13T05:52:08;25.75;;;8.00;;
48765;SDS011;65794;51.836;5.002;2023-07-13T05:54:35;28.90;;;8.05;;
48765;SDS011;65794;51.836;5.002;2023-07-13T05:57:02;23.75;;;7.22;;
48765;SDS011;65794;51.836;5.002;2023-07-13T05:59:29;25.33;;;7.93;;
48765;SDS011;65794;51.836;5.002;2023-07-13T06:01:56;24.83;;;7.80;;
48765;SDS011;65794;51.836;5.002;2023-07-13T06:04:23;30.88;;;9.07;;
48765;SDS011;65794;51.836;5.002;2023-07-13T06:06:50;26.23;;;8.50;;
48765;SDS011;65794;51.836;5.002;2023-07-13T06:09:17;24.30;;;8.75;;
48765;SDS011;65794;51.836;5.002;2023-07-13T06:11:44;28.17;;;8.70;;
48765;SDS011;65794;51.836;5.002;2023-07-13T06:14:11;25.70;;;9.00;;
48765;SDS011;65794;51.836;5.002;2023-07-13T06:16:39;27.27;;;9.55;;
48765;SDS011;65794;51.836;5.002;2023-07-13T06:19:06;25.80;;;10.60;;
48765;SDS011;65794;51.836;5.002;2023-07-13T06:21:34;27.85;;;9.25;;
48765;SDS011;65794;51.836;5.002;2023-07-13T06:24:01;22.00;;;9.07;;
48765;SDS011;65794;51.836;5.002;2023-07-13T06:26:28;24.98;;;10.18;;
48765;SDS011;65794;51.836;5.002;2023-07-13T06:28:55;32.38;;;10.13;;
48765;SDS011;65794;51.836;5.002;2023-07-13T06:31:22;25.60;;;11.45;;
48765;SDS011;65794;51.836;5.002;2023-07-13T06:33:49;28.52;;;10.32;;
48765;SDS011;65794;51.836;5.002;2023-07-13T06:36:16;28.83;;;10.98;;
48765;SDS011;65794;51.836;5.002;2023-07-13T06:38:43;28.80;;;11.15;;
48765;SDS011;65794;51.836;5.002;2023-07-13T06:41:10;28.35;;;10.77;;
48765;SDS011;65794;51.836;5.002;2023-07-13T06:43:37;27.25;;;10.88;;
48765;SDS011;65794;51.836;5.002;2023-07-13T06:46:04;31.55;;;11.25;;
48765;SDS011;65794;51.836;5.002;2023-07-13T06:48:31;29.48;;;10.60;;
48765;SDS011;65794;51.836;5.002;2023-07-13T06:50:58;29.20;;;10.13;;
48765;SDS011;65794;51.836;5.002;2023-07-13T06:53:24;31.70;;;9.25;;
48765;SDS011;65794;51.836;5.002;2023-07-13T06:55:51;24.88;;;9.60;;
48765;SDS011;65794;51.836;5.002;2023-07-13T06:58:18;29.27;;;10.52;;
48765;SDS011;65794;51.836;5.002;2023-07-13T07:00:46;22.05;;;9.45;;
48765;SDS011;65794;51.836;5.002;2023-07-13T07:03:13;20.65;;;9.02;;
48765;SDS011;65794;51.836;5.002;2023-07-13T07:05:40;31.33;;;9.38;;
48765;SDS011;65794;51.836;5.002;2023-07-13T07:08:07;34.55;;;9.45;;
48765;SDS011;65794;51.836;5.002;2023-07-13T07:10:34;22.33;;;8.75;;
48765;SDS011;65794;51.836;5.002;2023-07-13T07:13:01;20.55;;;8.90;;
48765;SDS011;65794;51.836;5.002;2023-07-13T07:15:28;22.00;;;7.57;;
48765;SDS011;65794;51.836;5.002;2023-07-13T07:17:55;24.83;;;7.47;;
48765;SDS011;65794;51.836;5.002;2023-07-13T07:20:22;27.45;;;7.30;;
48765;SDS011;65794;51.836;5.002;2023-07-13T07:22:49;23.02;;;7.57;;
48765;SDS011;65794;51.836;5.002;2023-07-13T07:25:16;20.80;;;7.05;;
48765;SDS011;65794;51.836;5.002;2023-07-13T07:27:43;19.63;;;6.88;;
48765;SDS011;65794;51.836;5.002;2023-07-13T07:30:13;33.45;;;7.22;;
48765;SDS011;65794;51.836;5.002;2023-07-13T07:32:43;18.67;;;6.28;;
48765;SDS011;65794;51.836;5.002;2023-07-13T07:35:13;17.77;;;6.25;;
48765;SDS011;65794;51.836;5.002;2023-07-13T07:37:39;17.88;;;6.13;;
48765;SDS011;65794;51.836;5.002;2023-07-13T07:40:09;12.73;;;4.65;;
48765;SDS011;65794;51.836;5.002;2023-07-13T07:42:39;17.88;;;5.63;;
48765;SDS011;65794;51.836;5.002;2023-07-13T07:45:06;13.88;;;5.30;;
48765;SDS011;65794;51.836;5.002;2023-07-13T07:47:33;15.32;;;4.93;;
48765;SDS011;65794;51.836;5.002;2023-07-13T07:50:00;15.45;;;5.13;;
48765;SDS011;65794;51.836;5.002;2023-07-13T07:52:27;12.43;;;4.28;;
48765;SDS011;65794;51.836;5.002;2023-07-13T07:54:54;13.93;;;4.63;;
48765;SDS011;65794;51.836;5.002;2023-07-13T07:57:24;11.35;;;4.03;;
48765;SDS011;65794;51.836;5.002;2023-07-13T07:59:54;12.27;;;4.40;;
48765;SDS011;65794;51.836;5.002;2023-07-13T08:02:24;15.20;;;4.47;;
48765;SDS011;65794;51.836;5.002;2023-07-13T08:04:54;16.88;;;4.38;;
48765;SDS011;65794;51.836;5.002;2023-07-13T08:07:24;11.43;;;4.53;;
48765;SDS011;65794;51.836;5.002;2023-07-13T08:09:54;13.07;;;4.30;;
48765;SDS011;65794;51.836;5.002;2023-07-13T08:12:21;22.88;;;4.93;;
48765;SDS011;65794;51.836;5.002;2023-07-13T08:14:51;18.05;;;4.70;;
48765;SDS011;65794;51.836;5.002;2023-07-13T08:17:24;13.48;;;4.78;;
48765;SDS011;65794;51.836;5.002;2023-07-13T08:19:51;14.07;;;5.00;;
48765;SDS011;65794;51.836;5.002;2023-07-13T08:22:19;17.30;;;5.20;;
48765;SDS011;65794;51.836;5.002;2023-07-13T08:24:45;13.82;;;4.93;;
48765;SDS011;65794;51.836;5.002;2023-07-13T08:27:13;11.90;;;4.07;;
48765;SDS011;65794;51.836;5.002;2023-07-13T08:29:41;15.00;;;4.18;;
48765;SDS011;65794;51.836;5.002;2023-07-13T08:32:08;9.73;;;4.07;;
48765;SDS011;65794;51.836;5.002;2023-07-13T08:34:38;10.80;;;3.03;;
48765;SDS011;65794;51.836;5.002;2023-07-13T08:37:05;8.10;;;3.38;;
48765;SDS011;65794;51.836;5.002;2023-07-13T08:39:32;7.90;;;3.30;;
48765;SDS011;65794;51.836;5.002;2023-07-13T08:42:02;13.73;;;3.10;;
48765;SDS011;65794;51.836;5.002;2023-07-13T08:45:03;10.60;;;3.30;;
48765;SDS011;65794;51.836;5.002;2023-07-13T08:47:23;9.60;;;3.20;;
48765;SDS011;65794;51.836;5.002;2023-07-13T08:49:50;14.15;;;3.25;;
48765;SDS011;65794;51.836;5.002;2023-07-13T08:54:49;8.60;;;3.38;;
48765;SDS011;65794;51.836;5.002;2023-07-13T08:57:19;11.43;;;3.65;;
48765;SDS011;65794;51.836;5.002;2023-07-13T08:59:46;5.63;;;2.95;;
48765;SDS011;65794;51.836;5.002;2023-07-13T09:04:54;11.82;;;3.00;;
48765;SDS011;65794;51.836;5.002;2023-07-13T09:07:33;9.07;;;3.17;;
48765;SDS011;65794;51.836;5.002;2023-07-13T09:17:44;8.80;;;2.47;;
48765;SDS011;65794;51.836;5.002;2023-07-13T09:20:26;5.80;;;2.28;;
48765;SDS011;65794;51.836;5.002;2023-07-13T09:22:54;8.95;;;2.85;;
48765;SDS011;65794;51.836;5.002;2023-07-13T09:25:24;8.10;;;2.97;;
48765;SDS011;65794;51.836;5.002;2023-07-13T09:27:53;9.88;;;3.45;;
48765;SDS011;65794;51.836;5.002;2023-07-13T09:30:30;6.30;;;2.35;;
48765;SDS011;65794;51.836;5.002;2023-07-13T09:32:59;12.30;;;3.45;;
48765;SDS011;65794;51.836;5.002;2023-07-13T09:35:27;8.63;;;3.17;;
48765;SDS011;65794;51.836;5.002;2023-07-13T09:37:59;6.80;;;2.90;;
48765;SDS011;65794;51.836;5.002;2023-07-13T09:40:30;9.20;;;3.05;;
48765;SDS011;65794;51.836;5.002;2023-07-13T09:42:59;11.73;;;3.10;;
48765;SDS011;65794;51.836;5.002;2023-07-13T09:45:27;9.82;;;2.45;;
48765;SDS011;65794;51.836;5.002;2023-07-13T09:48:13;11.00;;;3.13;;
48765;SDS011;65794;51.836;5.002;2023-07-13T09:50:41;11.68;;;3.28;;
48765;SDS011;65794;51.836;5.002;2023-07-13T09:53:16;8.38;;;3.00;;
48765;SDS011;65794;51.836;5.002;2023-07-13T09:55:44;6.43;;;2.33;;
48765;SDS011;65794;51.836;5.002;2023-07-13T09:58:21;7.93;;;2.78;;
48765;SDS011;65794;51.836;5.002;2023-07-13T10:00:58;5.78;;;2.25;;
48765;SDS011;65794;51.836;5.002;2023-07-13T10:03:27;8.25;;;2.08;;
48765;SDS011;65794;51.836;5.002;2023-07-13T10:05:54;7.32;;;2.30;;
48765;SDS011;65794;51.836;5.002;2023-07-13T10:08:29;9.20;;;2.47;;
48765;SDS011;65794;51.836;5.002;2023-07-13T10:11:01;11.93;;;2.85;;
48765;SDS011;65794;51.836;5.002;2023-07-13T10:13:34;6.07;;;2.33;;
48765;SDS011;65794;51.836;5.002;2023-07-13T10:16:04;8.13;;;2.40;;
48765;SDS011;65794;51.836;5.002;2023-07-13T10:18:43;11.68;;;2.28;;
48765;SDS011;65794;51.836;5.002;2023-07-13T10:21:21;5.55;;;1.85;;
48765;SDS011;65794;51.836;5.002;2023-07-13T10:23:53;9.00;;;2.38;;
48765;SDS011;65794;51.836;5.002;2023-07-13T10:26:22;7.70;;;2.05;;
48765;SDS011;65794;51.836;5.002;2023-07-13T10:28:54;5.97;;;1.67;;
48765;SDS011;65794;51.836;5.002;2023-07-13T10:31:23;6.63;;;2.03;;
48765;SDS011;65794;51.836;5.002;2023-07-13T10:33:50;7.10;;;1.52;;
48765;SDS011;65794;51.836;5.002;2023-07-13T10:36:34;3.72;;;1.50;;
48765;SDS011;65794;51.836;5.002;2023-07-13T10:39:04;8.18;;;1.92;;
48765;SDS011;65794;51.836;5.002;2023-07-13T10:41:33;2.97;;;1.40;;
48765;SDS011;65794;51.836;5.002;2023-07-13T10:44:03;5.80;;;1.42;;
48765;SDS011;65794;51.836;5.002;2023-07-13T10:46:31;6.35;;;1.90;;
48765;SDS011;65794;51.836;5.002;2023-07-13T10:49:00;5.68;;;2.03;;
48765;SDS011;65794;51.836;5.002;2023-07-13T10:51:28;7.10;;;2.20;;
48765;SDS011;65794;51.836;5.002;2023-07-13T10:56:46;10.10;;;2.42;;
48765;SDS011;65794;51.836;5.002;2023-07-13T10:59:27;5.78;;;2.45;;
48765;SDS011;65794;51.836;5.002;2023-07-13T11:04:23;5.05;;;2.00;;
48765;SDS011;65794;51.836;5.002;2023-07-13T11:06:58;5.13;;;2.05;;
48765;SDS011;65794;51.836;5.002;2023-07-13T11:09:39;7.32;;;2.28;;
48765;SDS011;65794;51.836;5.002;2023-07-13T11:19:51;4.90;;;1.50;;
48765;SDS011;65794;51.836;5.002;2023-07-13T11:22:24;4.05;;;1.55;;
48765;SDS011;65794;51.836;5.002;2023-07-13T11:24:58;3.70;;;1.40;;
48765;SDS011;65794;51.836;5.002;2023-07-13T11:27:40;2.95;;;1.20;;
48765;SDS011;65794;51.836;5.002;2023-07-13T11:30:13;2.72;;;1.02;;
48765;SDS011;65794;51.836;5.002;2023-07-13T11:32:49;3.47;;;1.27;;
48765;SDS011;65794;51.836;5.002;2023-07-13T11:35:19;9.70;;;1.50;;
48765;SDS011;65794;51.836;5.002;2023-07-13T11:37:49;10.38;;;1.65;;
48765;SDS011;65794;51.836;5.002;2023-07-13T11:40:17;4.05;;;1.20;;
48765;SDS011;65794;51.836;5.002;2023-07-13T11:42:44;5.85;;;1.30;;
48765;SDS011;65794;51.836;5.002;2023-07-13T11:45:18;3.83;;;1.17;;
48765;SDS011;65794;51.836;5.002;2023-07-13T11:47:47;5.82;;;1.30;;
48765;SDS011;65794;51.836;5.002;2023-07-13T11:50:20;4.38;;;1.17;;
48765;SDS011;65794;51.836;5.002;2023-07-13T11:52:48;4.47;;;1.08;;
48765;SDS011;65794;51.836;5.002;2023-07-13T11:55:17;4.18;;;1.10;;
48765;SDS011;65794;51.836;5.002;2023-07-13T11:57:48;3.85;;;1.25;;
48765;SDS011;65794;51.836;5.002;2023-07-13T12:00:21;3.55;;;1.15;;
48765;SDS011;65794;51.836;5.002;2023-07-13T12:02:50;3.47;;;1.10;;
48765;SDS011;65794;51.836;5.002;2023-07-13T12:05:18;5.03;;;1.23;;
48765;SDS011;65794;51.836;5.002;2023-07-13T12:07:47;3.95;;;1.02;;
48765;SDS011;65794;51.836;5.002;2023-07-13T12:10:25;6.18;;;1.48;;
48765;SDS011;65794;51.836;5.002;2023-07-13T12:12:53;3.90;;;1.17;;
48765;SDS011;65794;51.836;5.002;2023-07-13T12:15:28;3.40;;;1.00;;
48765;SDS011;65794;51.836;5.002;2023-07-13T12:17:56;5.50;;;1.20;;
48765;SDS011;65794;51.836;5.002;2023-07-13T12:20:24;4.38;;;1.38;;
48765;SDS011;65794;51.836;5.002;2023-07-13T12:22:52;2.83;;;1.00;;
48765;SDS011;65794;51.836;5.002;2023-07-13T12:25:20;2.03;;;0.80;;
48765;SDS011;65794;51.836;5.002;2023-07-13T12:27:49;3.67;;;1.10;;
48765;SDS011;65794;51.836;5.002;2023-07-13T12:30:30;4.82;;;1.25;;
48765;SDS011;65794;51.836;5.002;2023-07-13T12:33:07;2.25;;;0.90;;
48765;SDS011;65794;51.836;5.002;2023-07-13T12:35:41;4.18;;;1.00;;
48765;SDS011;65794;51.836;5.002;2023-07-13T12:38:11;5.32;;;0.88;;
48765;SDS011;65794;51.836;5.002;2023-07-13T12:40:39;3.90;;;1.00;;
48765;SDS011;65794;51.836;5.002;2023-07-13T12:43:13;3.90;;;1.00;;
48765;SDS011;65794;51.836;5.002;2023-07-13T12:45:57;4.75;;;1.08;;
48765;SDS011;65794;51.836;5.002;2023-07-13T12:48:25;1.80;;;0.82;;
48765;SDS011;65794;51.836;5.002;2023-07-13T12:51:12;4.50;;;0.98;;
48765;SDS011;65794;51.836;5.002;2023-07-13T12:53:42;3.17;;;0.80;;
48765;SDS011;65794;51.836;5.002;2023-07-13T12:56:13;3.67;;;0.90;;
48765;SDS011;65794;51.836;5.002;2023-07-13T12:58:44;2.75;;;0.90;;
48765;SDS011;65794;51.836;5.002;2023-07-13T13:01:15;6.78;;;1.13;;
48765;SDS011;65794;51.836;5.002;2023-07-13T13:03:48;3.00;;;0.98;;
48765;SDS011;65794;51.836;5.002;2023-07-13T13:08:46;4.25;;;1.00;;
48765;SDS011;65794;51.836;5.002;2023-07-13T13:11:16;3.17;;;0.82;;
48765;SDS011;65794;51.836;5.002;2023-07-13T13:13:43;2.80;;;1.13;;
48765;SDS011;65794;51.836;5.002;2023-07-13T13:18:50;2.13;;;0.70;;
48765;SDS011;65794;51.836;5.002;2023-07-13T13:21:18;3.17;;;0.80;;
48765;SDS011;65794;51.836;5.002;2023-07-13T13:23:45;4.18;;;1.10;;
48765;SDS011;65794;51.836;5.002;2023-07-13T13:26:13;3.53;;;0.98;;
48765;SDS011;65794;51.836;5.002;2023-07-13T13:28:42;3.67;;;1.17;;
48765;SDS011;65794;51.836;5.002;2023-07-13T13:31:11;3.92;;;1.02;;
48765;SDS011;65794;51.836;5.002;2023-07-13T13:33:40;3.03;;;1.00;;
48765;SDS011;65794;51.836;5.002;2023-07-13T13:36:13;4.07;;;1.10;;
48765;SDS011;65794;51.836;5.002;2023-07-13T13:38:40;5.47;;;0.98;;
48765;SDS011;65794;51.836;5.002;2023-07-13T13:41:09;5.00;;;1.10;;
48765;SDS011;65794;51.836;5.002;2023-07-13T13:43:37;6.07;;;1.40;;
48765;SDS011;65794;51.836;5.002;2023-07-13T13:46:05;5.60;;;0.95;;
48765;SDS011;65794;51.836;5.002;2023-07-13T13:48:37;4.35;;;1.10;;
48765;SDS011;65794;51.836;5.002;2023-07-13T13:51:18;3.33;;;1.25;;
48765;SDS011;65794;51.836;5.002;2023-07-13T13:53:46;7.95;;;1.42;;
48765;SDS011;65794;51.836;5.002;2023-07-13T13:56:14;4.00;;;1.13;;
48765;SDS011;65794;51.836;5.002;2023-07-13T13:58:41;10.90;;;2.58;;
48765;SDS011;65794;51.836;5.002;2023-07-13T14:01:20;9.65;;;3.67;;
48765;SDS011;65794;51.836;5.002;2023-07-13T14:03:49;10.00;;;3.83;;
48765;SDS011;65794;51.836;5.002;2023-07-13T14:06:18;4.70;;;1.90;;
48765;SDS011;65794;51.836;5.002;2023-07-13T14:08:45;8.02;;;1.40;;
48765;SDS011;65794;51.836;5.002;2023-07-13T14:11:13;5.93;;;1.40;;
48765;SDS011;65794;51.836;5.002;2023-07-13T14:13:42;3.72;;;1.20;;
48765;SDS011;65794;51.836;5.002;2023-07-13T14:16:13;8.27;;;1.13;;
48765;SDS011;65794;51.836;5.002;2023-07-13T14:18:41;4.13;;;1.10;;
48765;SDS011;65794;51.836;5.002;2023-07-13T14:21:15;3.65;;;0.90;;
48765;SDS011;65794;51.836;5.002;2023-07-13T14:23:43;4.05;;;1.13;;
48765;SDS011;65794;51.836;5.002;2023-07-13T14:26:10;4.05;;;1.00;;
48765;SDS011;65794;51.836;5.002;2023-07-13T14:28:41;3.63;;;1.17;;
48765;SDS011;65794;51.836;5.002;2023-07-13T14:31:10;3.75;;;1.20;;
48765;SDS011;65794;51.836;5.002;2023-07-13T14:33:37;4.97;;;1.00;;
48765;SDS011;65794;51.836;5.002;2023-07-13T14:38:43;2.42;;;1.10;;
48765;SDS011;65794;51.836;5.002;2023-07-13T14:41:10;4.30;;;0.90;;
48765;SDS011;65794;51.836;5.002;2023-07-13T14:43:37;3.78;;;1.08;;
48765;SDS011;65794;51.836;5.002;2023-07-13T14:46:04;2.25;;;0.85;;
48765;SDS011;65794;51.836;5.002;2023-07-13T14:48:31;3.75;;;1.00;;
48765;SDS011;65794;51.836;5.002;2023-07-13T14:50:58;5.75;;;1.15;;
48765;SDS011;65794;51.836;5.002;2023-07-13T14:53:26;2.17;;;0.82;;
48765;SDS011;65794;51.836;5.002;2023-07-13T14:55:54;4.15;;;1.13;;
48765;SDS011;65794;51.836;5.002;2023-07-13T14:58:21;3.17;;;0.80;;
48765;SDS011;65794;51.836;5.002;2023-07-13T15:00:48;2.60;;;1.02;;
48765;SDS011;65794;51.836;5.002;2023-07-13T15:03:18;2.25;;;0.90;;
48765;SDS011;65794;51.836;5.002;2023-07-13T15:05:48;4.15;;;0.90;;
48765;SDS011;65794;51.836;5.002;2023-07-13T15:08:16;3.90;;;1.20;;
48765;SDS011;65794;51.836;5.002;2023-07-13T15:10:42;6.40;;;1.33;;
48765;SDS011;65794;51.836;5.002;2023-07-13T15:13:16;4.00;;;1.20;;
48765;SDS011;65794;51.836;5.002;2023-07-13T15:15:48;2.33;;;0.88;;
48765;SDS011;65794;51.836;5.002;2023-07-13T15:18:16;4.70;;;1.25;;
48765;SDS011;65794;51.836;5.002;2023-07-13T15:20:44;3.10;;;1.02;;
48765;SDS011;65794;51.836;5.002;2023-07-13T15:23:15;2.95;;;1.02;;
48765;SDS011;65794;51.836;5.002;2023-07-13T15:25:42;3.20;;;1.10;;
48765;SDS011;65794;51.836;5.002;2023-07-13T15:28:10;3.53;;;1.05;;
48765;SDS011;65794;51.836;5.002;2023-07-13T15:30:40;2.70;;;1.05;;
48765;SDS011;65794;51.836;5.002;2023-07-13T15:33:11;7.18;;;1.33;;